Time;durP1;ratioP1;P1;durP2;ratioP2;P2;SDS_P1;SDS_P2;PMS_P1;PMS_P2;Temp;Humidity;BMP_temperature;BMP_pressure;BME280_temperature;BME280_humidity;BME280_pressure;Samples;Min_cycle;Max_cycle;Signal;HPM_P1;HPM_P2
2022/07/23 00:01:36;;;;;;;;;23.75;19.50;;;;;23.03;63.15;101049.31;4994840;28;45464;-80
2022/07/23 00:07:24;;;;;;;;;22.75;21.75;;;;;23.01;62.59;101048.63;4994359;28;45543;-80
2022/07/23 00:09:49;;;;;;;;;23.50;22.50;;;;;23.02;63.22;101042.28;4995005;28;45474;-80
2022/07/23 00:12:15;;;;;;;;;29.25;27.00;;;;;23.01;63.57;101045.97;4994485;28;45853;-80
2022/07/23 00:14:40;;;;;;;;;31.75;28.25;;;;;23.01;63.21;101049.47;4994589;28;45591;-80
2022/07/23 00:17:06;;;;;;;;;32.75;30.50;;;;;23.05;64.55;101038.44;4994495;28;45566;-80
2022/07/23 00:22:55;;;;;;;;;32.50;31.50;;;;;22.99;65.11;101046.16;4993479;28;45675;-80
2022/07/23 00:25:22;;;;;;;;;37.50;32.75;;;;;22.98;64.93;101052.50;4976131;28;47155;-80
2022/07/23 00:27:47;;;;;;;;;38.50;33.50;;;;;22.90;65.63;101047.22;4976407;28;45783;-79
2022/07/23 00:30:14;;;;;;;;;33.75;30.75;;;;;22.82;65.69;101033.94;4976318;28;45707;-79
2022/07/23 00:32:50;;;;;;;;;35.75;31.75;;;;;22.80;65.62;101045.78;4993862;28;45738;-80
2022/07/23 00:35:19;;;;;;;;;33.00;30.50;;;;;22.75;65.56;101046.31;4993876;28;45965;-79
2022/07/23 00:37:44;;;;;;;;;31.00;29.00;;;;;22.73;65.92;101036.81;4994085;28;45539;-80
2022/07/23 00:40:11;;;;;;;;;31.50;29.50;;;;;22.72;66.17;101038.69;4994288;28;45497;-79
2022/07/23 00:42:36;;;;;;;;;32.25;30.25;;;;;22.67;66.14;101032.16;4993994;28;46562;-80
2022/07/23 00:45:02;;;;;;;;;32.25;29.75;;;;;22.54;66.73;101025.56;4993797;28;46225;-80
2022/07/23 00:47:28;;;;;;;;;36.50;32.50;;;;;22.49;66.64;101027.94;4976252;28;45879;-79
2022/07/23 00:49:53;;;;;;;;;32.75;31.25;;;;;22.45;67.08;101037.31;4994347;28;45823;-79
2022/07/23 00:52:18;;;;;;;;;35.00;31.00;;;;;22.39;66.89;101032.66;5008255;28;45753;-80
2022/07/23 00:54:44;;;;;;;;;35.75;30.75;;;;;22.31;67.54;101031.84;4995609;28;46221;-80
2022/07/23 00:57:09;;;;;;;;;33.00;29.25;;;;;22.29;67.65;101032.06;5013725;28;45694;-80
2022/07/23 00:59:35;;;;;;;;;30.00;28.25;;;;;;;;5013913;28;45706;-79
2022/07/23 01:02:00;;;;;;;;;36.50;31.75;;;;;22.20;67.32;101025.06;4995534;28;48221;-79
2022/07/23 01:07:29;;;;;;;;;34.50;31.75;;;;;22.10;67.67;101033.28;5013093;28;46057;-80
2022/07/23 01:09:55;;;;;;;;;37.25;29.75;;;;;22.02;67.99;101025.34;5013510;28;45791;-79
2022/07/23 01:12:21;;;;;;;;;36.50;31.75;;;;;22.04;68.26;101031.31;5013217;28;45634;-78
2022/07/23 01:14:59;;;;;;;;;33.75;30.25;;;;;21.92;68.07;101034.50;5013397;28;46686;-81
2022/07/23 01:17:25;;;;;;;;;33.00;30.75;;;;;21.91;68.83;101030.19;5013347;28;45992;-79
2022/07/23 01:23:12;;;;;;;;;31.50;29.25;;;;;21.80;69.00;101036.72;5012826;28;45693;-79
2022/07/23 01:25:37;;;;;;;;;37.25;30.25;;;;;21.75;69.40;101028.41;4995020;28;48254;-80
2022/07/23 01:28:03;;;;;;;;;34.00;29.75;;;;;21.69;69.10;101013.06;5013072;28;45706;-80
2022/07/23 01:30:28;;;;;;;;;35.75;32.00;;;;;21.78;68.90;101031.53;5013482;28;45563;-80
2022/07/23 01:32:54;;;;;;;;;33.25;29.50;;;;;21.78;69.28;101028.03;5013116;28;45470;-80
2022/07/23 01:35:19;;;;;;;;;32.25;30.00;;;;;21.77;68.90;101040.53;5015047;28;46073;-80
2022/07/23 01:37:44;;;;;;;;;35.25;28.00;;;;;21.76;69.62;101038.88;5016707;28;45523;-80
2022/07/23 01:40:10;;;;;;;;;33.75;27.25;;;;;21.68;68.85;101011.41;4998787;28;45535;-80
2022/07/23 01:42:36;;;;;;;;;33.00;30.25;;;;;21.74;69.56;101027.56;5016460;28;46397;-79
2022/07/23 01:45:01;;;;;;;;;36.00;30.50;;;;;21.71;69.26;101025.22;5016599;28;46420;-79
2022/07/23 01:47:27;;;;;;;;;31.50;30.50;;;;;21.76;69.02;101022.88;5016331;28;45508;-79
2022/07/23 01:53:15;;;;;;;;;36.00;30.50;;;;;21.78;69.23;101025.38;5014179;28;45670;-79
2022/07/23 01:55:41;;;;;;;;;31.50;27.50;;;;;21.75;69.58;101020.41;5016409;28;46505;-79
2022/07/23 01:58:06;;;;;;;;;28.50;27.00;;;;;21.76;69.02;101022.88;5016405;28;45695;-79
2022/07/23 02:00:33;;;;;;;;;29.50;27.00;;;;;21.69;68.76;101008.56;5016684;28;45676;-80
2022/07/23 02:02:58;;;;;;;;;30.50;28.25;;;;;21.77;69.15;101016.53;5016706;28;46851;-78
2022/07/23 02:08:45;;;;;;;;;34.75;29.00;;;;;21.72;69.37;101016.22;5018406;28;45520;-78
2022/07/23 02:11:10;;;;;;;;;26.50;24.00;;;;;21.70;68.84;101007.53;5000003;28;45503;-80
2022/07/23 02:13:36;;;;;;;;;25.75;23.25;;;;;21.80;68.72;101036.72;5016361;28;45486;-80
2022/07/23 02:16:01;;;;;;;;;26.75;23.25;;;;;21.70;69.08;101012.06;5016095;28;45622;-80
2022/07/23 02:18:26;;;;;;;;;25.00;23.75;;;;;21.73;69.37;101023.22;5016008;28;45696;-80
2022/07/23 02:20:52;;;;;;;;;29.50;25.75;;;;;21.65;69.42;101015.22;5016172;28;45500;-80
2022/07/23 02:23:17;;;;;;;;;24.25;23.25;;;;;21.73;68.96;101031.22;5015970;28;45562;-80
2022/07/23 02:25:42;;;;;;;;;25.25;22.00;;;;;21.68;69.40;101022.91;5015686;28;45760;-80
2022/07/23 02:28:08;;;;;;;;;28.50;25.00;;;;;21.67;69.27;101025.72;5015846;28;45716;-79
2022/07/23 02:30:33;;;;;;;;;22.50;21.50;;;;;21.70;68.92;101034.22;5016069;28;45756;-80
2022/07/23 02:32:59;;;;;;;;;26.00;23.00;;;;;21.66;69.33;101038.25;5015796;28;45637;-80
2022/07/23 02:38:46;;;;;;;;;29.00;26.25;;;;;21.62;68.70;101033.41;5015400;28;45497;-80
2022/07/23 02:41:12;;;;;;;;;21.75;21.00;;;;;21.60;68.77;101044.25;5015841;28;45571;-80
2022/07/23 02:43:38;;;;;;;;;24.50;24.50;;;;;21.61;68.78;101056.59;5015617;28;46799;-80
2022/07/23 02:46:03;;;;;;;;;23.25;21.25;;;;;21.58;68.78;101050.78;5014812;28;45737;-80
2022/07/23 02:48:29;;;;;;;;;25.50;22.75;;;;;21.50;68.95;101032.94;5015284;28;45685;-80
2022/07/23 02:54:15;;;;;;;;;28.75;23.75;;;;;21.56;68.34;101050.94;5013502;28;46132;-79
2022/07/23 02:56:41;;;;;;;;;28.25;25.25;;;;;21.55;68.44;101048.41;5015577;28;45691;-80
2022/07/23 02:59:06;;;;;;;;;30.00;21.00;;;;;21.51;68.60;101052.44;5015228;28;45563;-80
2022/07/23 03:01:32;;;;;;;;;20.25;19.75;;;;;21.42;69.14;101051.63;5015756;28;45539;-80
2022/07/23 03:03:57;;;;;;;;;28.25;23.75;;;;;21.42;68.89;101045.47;5015095;28;46604;-80
2022/07/23 03:06:23;;;;;;;;;24.25;21.75;;;;;21.47;69.32;101056.44;4997199;28;47411;-80
2022/07/23 03:08:48;;;;;;;;;26.50;24.25;;;;;21.47;69.51;101059.94;5015109;28;45760;-80
2022/07/23 03:11:14;;;;;;;;;28.00;25.50;;;;;21.37;69.45;101053.97;4997455;28;45666;-80
2022/07/23 03:13:40;;;;;;;;;34.25;29.50;;;;;21.43;69.52;101066.59;5015309;28;45913;-80
2022/07/23 03:16:06;;;;;;;;;27.25;25.00;;;;;21.39;69.58;101059.94;5015081;28;45567;-80
2022/07/23 03:18:32;;;;;;;;;29.25;27.50;;;;;21.35;69.81;101062.13;5015103;28;45606;-80
2022/07/23 03:24:20;;;;;;;;;26.50;26.00;;;;;21.41;70.05;101057.97;5014743;28;46095;-80
2022/07/23 03:26:45;;;;;;;;;29.50;28.00;;;;;21.39;70.36;101062.63;5015144;28;45902;-80
2022/07/23 03:29:11;;;;;;;;;30.25;27.75;;;;;21.46;69.98;101074.28;5015008;28;45719;-80
2022/07/23 03:31:36;;;;;;;;;28.75;26.25;;;;;21.41;70.34;101063.28;5015049;28;45800;-79
2022/07/23 03:34:02;;;;;;;;;30.75;28.25;;;;;21.40;70.15;101063.44;5014740;28;46643;-79
2022/07/23 03:39:49;;;;;;;;;31.00;29.75;;;;;21.46;70.30;101076.09;5014597;28;45729;-79
2022/07/23 03:42:14;;;;;;;;;32.50;29.00;;;;;21.44;70.17;101068.28;5015297;28;45544;-80
2022/07/23 03:44:40;;;;;;;;;30.00;27.25;;;;;21.48;70.06;101074.97;5014860;28;45684;-80
2022/07/23 03:47:06;;;;;;;;;27.50;26.00;;;;;21.45;70.23;101075.28;5014418;28;45642;-80
2022/07/23 03:49:32;;;;;;;;;24.50;23.75;;;;;21.47;70.09;101086.63;5014693;28;45867;-80
2022/07/23 03:51:58;;;;;;;;;27.25;25.75;;;;;21.47;70.17;101088.44;5014851;28;45619;-80
2022/07/23 03:54:23;;;;;;;;;31.25;25.00;;;;;21.33;69.98;101060.63;5014158;28;46848;-80
2022/07/23 03:56:49;;;;;;;;;27.25;25.75;;;;;21.38;70.10;101090.25;5012415;28;46304;-80
2022/07/23 03:59:14;;;;;;;;;32.00;25.00;;;;;21.28;69.90;101069.13;5014278;28;45536;-78
2022/07/23 04:01:39;;;;;;;;;30.75;28.50;;;;;21.34;69.96;101091.59;5014757;28;45418;-79
2022/07/23 04:04:05;;;;;;;;;24.75;23.00;;;;;21.24;69.29;101083.78;4996372;28;48080;-80
2022/07/23 04:09:52;;;;;;;;;27.00;24.00;;;;;21.19;69.39;101093.28;5014121;28;45685;-80
2022/07/23 04:12:18;;;;;;;;;24.00;20.25;;;;;21.14;69.46;101095.56;5014545;28;45804;-82
2022/07/23 04:14:43;;;;;;;;;25.50;22.25;;;;;21.10;69.90;101091.59;5014194;28;45599;-80
2022/07/23 04:17:09;;;;;;;;;22.00;21.50;;;;;21.06;69.19;101103.53;5013974;28;46274;-81
2022/07/23 04:19:39;;;;;;;;;26.50;19.50;;;;;20.94;69.61;101095.88;5014328;28;45774;-80
2022/07/23 04:22:08;;;;;;;;;23.75;22.75;;;;;20.94;69.74;101095.06;5014192;28;45959;-79
2022/07/23 04:24:33;;;;;;;;;28.25;24.00;;;;;20.91;69.89;101098.03;5014010;28;45921;-79
2022/07/23 04:26:58;;;;;;;;;24.75;22.25;;;;;20.85;70.39;101091.53;5013893;28;45708;-79
2022/07/23 04:29:24;;;;;;;;;23.25;23.25;;;;;20.84;70.56;101089.03;5014226;28;45476;-80
2022/07/23 04:31:50;;;;;;;;;23.25;21.00;;;;;20.91;70.29;101096.22;5014428;28;45420;-80
2022/07/23 04:34:15;;;;;;;;;25.25;24.50;;;;;20.85;70.49;101091.53;5013936;28;45587;-80
2022/07/23 04:40:03;;;;;;;;;23.25;22.00;;;;;20.86;70.85;101106.53;5013924;28;45729;-79
2022/07/23 04:42:28;;;;;;;;;26.00;22.25;;;;;20.83;70.70;101093.53;5013983;28;45477;-79
2022/07/23 04:44:53;;;;;;;;;23.00;21.50;;;;;20.84;71.05;101089.03;5013601;28;46579;-79
2022/07/23 04:47:19;;;;;;;;;27.75;23.25;;;;;20.91;70.85;101098.88;5013982;28;45574;-78
2022/07/23 04:49:44;;;;;;;;;25.75;22.00;;;;;20.96;70.70;101103.69;5014003;28;45567;-79
2022/07/23 04:55:31;;;;;;;;;25.25;23.00;;;;;21.00;70.19;101105.03;5011441;28;45716;-78
2022/07/23 04:57:57;;;;;;;;;24.50;24.00;;;;;20.95;70.04;101102.03;5013730;28;45702;-80
2022/07/23 05:00:22;;;;;;;;;24.50;24.25;;;;;20.93;69.96;101101.38;5013805;28;45630;-79
2022/07/23 05:02:47;;;;;;;;;27.25;23.75;;;;;20.94;70.12;101106.53;5014000;28;45798;-79
2022/07/23 05:05:13;;;;;;;;;28.50;24.00;;;;;20.93;69.79;101093.38;5013585;28;46455;-80
2022/07/23 05:07:38;;;;;;;;;23.75;20.75;;;;;20.92;69.95;101102.38;5013453;28;45604;-80
2022/07/23 05:10:04;;;;;;;;;26.25;21.25;;;;;20.96;69.78;101101.03;5013509;28;45414;-79
2022/07/23 05:12:29;;;;;;;;;22.50;19.75;;;;;21.06;70.36;101119.53;5013841;28;45638;-79
2022/07/23 05:14:55;;;;;;;;;27.50;24.00;;;;;21.06;69.79;101104.38;4995230;28;47294;-79
2022/07/23 05:17:20;;;;;;;;;27.25;21.75;;;;;21.05;69.99;101109.91;4995361;28;47417;-79
2022/07/23 05:19:45;;;;;;;;;23.25;17.50;;;;;21.03;69.51;101109.22;5013835;28;45570;-79
2022/07/23 05:25:33;;;;;;;;;22.50;19.75;;;;;20.91;69.81;101106.03;5012991;28;45996;-80
2022/07/23 05:27:58;;;;;;;;;25.75;21.75;;;;;21.00;69.55;101120.22;4995347;28;48372;-79
2022/07/23 05:30:24;;;;;;;;;24.75;22.50;;;;;20.95;69.54;101110.84;5013664;28;45640;-81
2022/07/23 05:32:49;;;;;;;;;24.50;22.50;;;;;20.90;69.61;101099.88;5013470;28;45414;-80
2022/07/23 05:35:14;;;;;;;;;22.75;21.00;;;;;20.88;69.83;101109.88;5013366;28;45479;-80
2022/07/23 05:37:40;;;;;;;;;26.50;21.75;;;;;20.81;69.91;101095.53;5013056;28;46407;-80
2022/07/23 05:40:08;;;;;;;;;25.25;24.00;;;;;20.89;70.04;101114.19;5013486;28;45487;-80
2022/07/23 05:42:35;;;;;;;;;28.50;25.75;;;;;20.93;70.07;101114.69;5013424;28;45653;-80
2022/07/23 05:45:00;;;;;;;;;26.25;25.25;;;;;20.91;70.12;101112.19;5013268;28;45680;-80
2022/07/23 05:47:26;;;;;;;;;31.50;28.00;;;;;20.94;69.77;101129.69;5013117;28;46222;-81
2022/07/23 05:49:51;;;;;;;;;24.50;22.00;;;;;20.83;70.30;101108.69;4995007;28;45732;-80
2022/07/23 05:55:38;;;;;;;;;31.50;28.50;;;;;20.85;70.52;101122.66;5012733;28;45557;-80
2022/07/23 05:58:03;;;;;;;;;31.00;28.25;;;;;20.79;70.47;101113.50;4994957;28;45934;-81
2022/07/23 06:00:29;;;;;;;;;31.25;29.50;;;;;20.79;70.44;101115.31;5013175;28;45668;-80
2022/07/23 06:02:55;;;;;;;;;31.50;27.75;;;;;20.85;70.73;101128.81;5013192;28;45660;-81
2022/07/23 06:05:21;;;;;;;;;28.75;27.75;;;;;20.82;70.76;101131.81;4994653;28;47318;-81
2022/07/23 06:11:08;;;;;;;;;34.75;31.50;;;;;20.82;70.75;101123.84;5012608;28;45601;-80
2022/07/23 06:13:33;;;;;;;;;41.75;33.75;;;;;20.82;70.50;101123.84;5012909;28;45963;-80
2022/07/23 06:15:59;;;;;;;;;38.00;32.00;;;;;20.86;70.89;101127.84;5012726;28;46357;-80
2022/07/23 06:18:24;;;;;;;;;39.75;32.25;;;;;20.86;70.89;101129.66;5012495;28;45626;-80
2022/07/23 06:20:50;;;;;;;;;38.50;33.50;;;;;20.85;70.93;101135.97;5013979;28;45724;-79
2022/07/23 06:23:15;;;;;;;;;41.50;33.25;;;;;20.79;71.09;101136.63;5016230;28;45701;-80
2022/07/23 06:25:41;;;;;;;;;38.00;31.75;;;;;20.85;71.28;101141.31;5017622;28;45666;-80
2022/07/23 06:28:06;;;;;;;;;38.25;33.00;;;;;20.83;70.99;101138.00;5019395;28;46381;-80
2022/07/23 06:30:32;;;;;;;;;39.75;31.50;;;;;20.86;70.96;101149.16;5004178;28;45601;-81
2022/07/23 06:32:57;;;;;;;;;37.25;32.25;;;;;20.91;71.09;101164.63;5023763;28;45672;-81
2022/07/23 06:35:23;;;;;;;;;40.00;33.75;;;;;20.80;71.53;101154.28;5005306;28;47323;-79
2022/07/23 06:41:10;;;;;;;;;43.50;34.75;;;;;20.78;71.53;101165.09;5023039;28;45788;-80
2022/07/23 06:43:35;;;;;;;;;44.75;35.00;;;;;20.82;71.57;101163.78;5023836;28;45679;-79
2022/07/23 06:46:01;;;;;;;;;41.25;35.25;;;;;20.77;71.88;101170.59;5023519;28;45488;-78
2022/07/23 06:48:27;;;;;;;;;49.25;38.50;;;;;20.74;71.58;101161.09;5023417;28;45543;-79
2022/07/23 06:50:53;;;;;;;;;45.00;36.50;;;;;20.73;71.58;101151.41;5023750;28;45678;-78
2022/07/23 06:56:40;;;;;;;;;46.75;36.25;;;;;20.77;71.51;101149.28;5021290;28;45817;-80
2022/07/23 06:59:06;;;;;;;;;47.00;37.25;;;;;20.86;71.41;101158.97;5005114;28;47643;-79
2022/07/23 07:01:31;;;;;;;;;47.50;37.25;;;;;20.92;71.63;101164.47;5023767;28;45647;-79
2022/07/23 07:03:57;;;;;;;;;52.75;38.00;;;;;21.03;71.08;101166.00;5023345;28;45756;-78
2022/07/23 07:06:22;;;;;;;;;45.75;37.00;;;;;21.10;71.04;101177.69;5023457;28;45530;-79
2022/07/23 07:08:47;;;;;;;;;47.00;38.75;;;;;21.11;71.32;101189.16;5022347;28;45651;-79
2022/07/23 07:11:13;;;;;;;;;45.25;36.00;;;;;21.15;71.09;101178.06;5022684;28;45741;-79
2022/07/23 07:13:38;;;;;;;;;48.50;39.75;;;;;21.07;71.02;101175.34;5023542;28;45554;-80
2022/07/23 07:16:04;;;;;;;;;44.25;35.25;;;;;21.20;70.40;101191.72;5023038;28;46946;-80
2022/07/23 07:18:30;;;;;;;;;48.75;38.75;;;;;21.16;70.81;101181.56;5023035;28;45691;-79
2022/07/23 07:20:57;;;;;;;;;44.25;36.25;;;;;21.25;70.90;101181.41;5023299;28;45691;-80
2022/07/23 07:26:44;;;;;;;;;44.75;37.00;;;;;21.39;70.18;101206.56;5022609;28;45586;-79
2022/07/23 07:29:09;;;;;;;;;47.50;38.50;;;;;21.43;70.17;101204.44;5022868;28;46484;-79
2022/07/23 07:31:37;;;;;;;;;48.75;37.25;;;;;21.43;70.19;101207.91;5020107;28;45472;-79
2022/07/23 07:34:03;;;;;;;;;48.50;39.00;;;;;21.40;69.84;101192.25;5014740;28;45547;-80
2022/07/23 07:36:28;;;;;;;;;46.75;34.50;;;;;21.38;69.86;101191.56;5015098;28;46613;-79
2022/07/23 07:38:53;;;;;;;;;47.00;37.50;;;;;21.45;70.08;101208.59;5014676;28;45845;-80
2022/07/23 07:41:22;;;;;;;;;48.00;37.25;;;;;21.40;70.09;101196.75;5015136;28;45670;-79
2022/07/23 07:43:48;;;;;;;;;39.50;33.75;;;;;21.46;70.37;101199.59;5015152;28;45677;-79
2022/07/23 07:46:13;;;;;;;;;47.00;37.00;;;;;21.50;69.84;101213.44;5014893;28;46489;-78
2022/07/23 07:48:39;;;;;;;;;47.75;36.50;;;;;21.43;70.23;101205.25;4996899;28;47456;-79
2022/07/23 07:51:05;;;;;;;;;48.00;38.25;;;;;21.44;70.02;101212.25;5017574;28;45486;-80
2022/07/23 07:56:52;;;;;;;;;45.25;37.00;;;;;21.47;70.17;101221.78;5014654;28;46000;-79
2022/07/23 07:59:17;;;;;;;;;45.50;35.50;;;;;21.44;70.31;101214.91;5020496;28;45670;-78
2022/07/23 08:01:42;;;;;;;;;48.50;36.75;;;;;21.51;70.16;101225.75;5015901;28;45613;-80
2022/07/23 08:04:08;;;;;;;;;42.75;37.00;;;;;21.48;69.73;101218.94;5014840;28;45699;-80
2022/07/23 08:06:33;;;;;;;;;44.50;35.00;;;;;21.54;69.75;101210.25;4996611;28;48324;-82
2022/07/23 08:12:21;;;;;;;;;44.25;35.50;;;;;21.66;69.29;101227.63;5014338;28;45548;-81
2022/07/23 08:14:46;;;;;;;;;45.00;34.50;;;;;21.69;69.59;101226.47;5015004;28;45659;-79
2022/07/23 08:17:12;;;;;;;;;45.25;36.25;;;;;21.73;69.45;101220.63;5015081;28;46661;-81
2022/07/23 08:19:37;;;;;;;;;38.25;32.25;;;;;21.73;69.02;101222.44;5015670;28;45839;-80
2022/07/23 08:22:03;;;;;;;;;46.75;38.25;;;;;21.75;69.21;101223.13;4996499;28;45856;-81
2022/07/23 08:24:28;;;;;;;;;44.00;38.00;;;;;21.80;69.28;101225.28;5013994;28;45710;-81
2022/07/23 08:26:54;;;;;;;;;43.75;35.00;;;;;21.77;68.54;101229.13;4995693;28;47847;-78
2022/07/23 08:29:20;;;;;;;;;45.25;37.50;;;;;21.78;68.98;101218.28;5014062;28;45966;-80
2022/07/23 08:31:45;;;;;;;;;41.75;36.00;;;;;21.89;69.04;101234.97;5013488;28;45711;-79
2022/07/23 08:34:10;;;;;;;;;48.50;39.00;;;;;21.91;68.46;101236.47;5014487;28;45818;-80
2022/07/23 08:36:36;;;;;;;;;46.75;33.50;;;;;21.99;68.74;101252.50;5013170;28;45626;-80
2022/07/23 08:42:24;;;;;;;;;38.00;33.00;;;;;21.98;68.40;101258.84;5013447;28;45548;-80
2022/07/23 08:44:50;;;;;;;;;46.50;36.50;;;;;21.99;67.77;101263.19;5013862;28;45627;-79
2022/07/23 08:47:16;;;;;;;;;43.50;35.00;;;;;21.95;68.48;101259.19;5013415;28;45574;-80
2022/07/23 08:49:41;;;;;;;;;39.00;33.25;;;;;21.96;68.14;101249.34;5013469;28;46104;-80
2022/07/23 08:52:07;;;;;;;;;42.25;33.25;;;;;22.02;67.51;101256.69;4995749;28;45687;-79
2022/07/23 08:57:54;;;;;;;;;42.25;34.00;;;;;22.13;67.85;101265.16;5011129;28;45755;-79
2022/07/23 09:00:21;;;;;;;;;43.50;34.25;;;;;22.13;67.52;101267.03;5013735;28;45595;-79
2022/07/23 09:02:47;;;;;;;;;35.00;29.50;;;;;22.16;67.26;101266.69;5013652;28;45530;-80
2022/07/23 09:05:15;;;;;;;;;37.25;31.50;;;;;22.17;67.20;101266.50;4995455;28;45581;-81
2022/07/23 09:08:08;;;;;;;;;37.50;33.75;;;;;22.23;66.79;101265.00;5013563;28;46696;-81
2022/07/23 09:10:55;;;;;;;;;36.00;32.00;;;;;22.29;66.29;101275.03;5013547;28;46494;-80
2022/07/23 09:13:24;;;;;;;;;38.50;34.00;;;;;22.37;66.06;101275.00;4995555;28;45773;-80
2022/07/23 09:15:51;;;;;;;;;42.00;31.50;;;;;22.37;66.60;101258.13;5013198;28;45464;-80
2022/07/23 09:18:17;;;;;;;;;35.00;31.50;;;;;22.38;66.18;101257.97;5013024;28;47011;-80
2022/07/23 09:20:43;;;;;;;;;35.75;28.75;;;;;22.51;65.69;101258.25;5013463;28;46448;-80
2022/07/23 09:23:09;;;;;;;;;30.00;27.50;;;;;22.59;65.33;101265.44;5012815;28;45782;-80
2022/07/23 09:25:34;;;;;;;;;35.75;33.25;;;;;22.64;64.96;101264.91;5013483;28;45602;-79
2022/07/23 09:28:02;;;;;;;;;35.00;32.75;;;;;22.65;65.71;101264.75;5012981;28;45644;-79
2022/07/23 09:30:31;;;;;;;;;37.00;31.25;;;;;22.71;65.34;101266.78;4995095;28;47337;-80
2022/07/23 09:33:16;;;;;;;;;38.75;33.25;;;;;22.68;65.23;101255.53;5012841;28;45905;-80
2022/07/23 09:35:52;;;;;;;;;38.75;33.25;;;;;22.77;64.71;101267.94;5012485;28;45879;-79
2022/07/23 09:38:22;;;;;;;;;38.00;33.00;;;;;22.75;64.93;101264.59;4994763;28;46868;-78
2022/07/23 09:41:09;;;;;;;;;34.75;29.75;;;;;22.74;64.49;101252.22;5013161;28;46399;-84
2022/07/23 09:43:35;;;;;;;;;36.50;32.25;;;;;22.83;64.21;101251.22;5013188;28;45627;-85
2022/07/23 09:46:25;;;;;;;;;36.75;30.50;;;;;22.93;63.73;101257.19;4995392;28;45871;-84
2022/07/23 09:48:52;;;;;;;;;41.50;33.75;;;;;23.00;63.66;101256.28;4932462;28;45975;-84
2022/07/23 09:51:22;;;;;;;;;27.75;23.00;;;;;23.06;63.32;101259.28;4933561;28;45596;-84
2022/07/23 09:53:47;;;;;;;;;36.00;30.25;;;;;23.15;63.67;101269.78;4932191;28;45715;-79
2022/07/23 09:56:14;;;;;;;;;43.50;34.75;;;;;23.14;63.27;101265.44;4934303;28;45679;-79
2022/07/23 09:58:49;;;;;;;;;39.25;31.75;;;;;23.18;63.24;101264.06;4935548;28;46720;-79
2022/07/23 10:01:15;;;;;;;;;37.00;32.50;;;;;23.16;63.04;101255.38;4936096;28;46612;-79
2022/07/23 10:03:42;;;;;;;;;33.00;31.25;;;;;23.18;63.35;101247.19;4935669;28;45800;-80
2022/07/23 10:06:13;;;;;;;;;34.25;29.50;;;;;23.26;62.77;101257.88;4936368;28;45823;-80
2022/07/23 10:08:47;;;;;;;;;40.25;31.00;;;;;23.31;62.86;101253.66;4935718;28;45708;-80
2022/07/23 10:11:14;;;;;;;;;33.75;31.00;;;;;23.37;62.67;101255.59;4936126;28;46461;-80
2022/07/23 10:14:00;;;;;;;;;38.25;32.00;;;;;23.41;62.43;101246.22;4935894;28;45753;-80
2022/07/23 10:16:26;;;;;;;;;36.00;30.25;;;;;23.45;61.86;101238.69;4935334;28;45620;-80
2022/07/23 10:18:52;;;;;;;;;31.00;27.25;;;;;23.53;61.92;101260.06;4936049;28;46673;-79
2022/07/23 10:21:42;;;;;;;;;39.00;31.75;;;;;23.65;62.17;101257.78;4935637;28;45955;-79
2022/07/23 10:24:20;;;;;;;;;31.75;28.25;;;;;23.71;62.00;101257.91;4935595;28;45650;-78
2022/07/23 10:27:18;;;;;;;;;30.00;28.25;;;;;23.78;61.88;101248.19;4989221;28;45540;-80
2022/07/23 10:29:50;;;;;;;;;37.50;32.75;;;;;23.91;61.72;101250.25;4985646;28;46886;-80
2022/07/23 10:32:46;;;;;;;;;38.00;33.00;;;;;23.97;61.64;101260.22;4995939;28;46046;-80
2022/07/23 10:35:28;;;;;;;;;30.25;29.50;;;;;23.96;61.50;101261.25;4995650;28;45834;-81
2022/07/23 10:38:10;;;;;;;;;33.50;30.25;;;;;23.99;61.28;101246.66;4995969;28;45658;-80
2022/07/23 10:40:35;;;;;;;;;37.00;31.75;;;;;23.96;61.12;101245.19;4995933;28;45572;-80
2022/07/23 10:43:01;;;;;;;;;28.50;24.25;;;;;24.06;60.93;101261.00;4995438;28;46372;-78
2022/07/23 10:45:27;;;;;;;;;39.00;32.75;;;;;24.10;60.88;101264.97;5010879;28;45606;-79
2022/07/23 10:47:53;;;;;;;;;29.50;27.50;;;;;24.05;60.64;101265.53;4999688;28;45620;-84
2022/07/23 10:50:34;;;;;;;;;25.75;24.25;;;;;24.08;60.69;101277.69;5000861;28;46319;-87
2022/07/23 10:53:06;;;;;;;;;36.00;30.00;;;;;24.04;60.08;101274.56;4981423;28;47262;-78
2022/07/23 10:55:37;;;;;;;;;33.00;27.50;;;;;24.06;60.25;101277.06;5001550;28;45551;-85
2022/07/23 10:58:05;;;;;;;;;31.75;30.00;;;;;24.07;60.83;101281.41;5008812;28;45676;-78
2022/07/23 11:00:32;;;;;;;;;32.75;29.25;;;;;24.05;60.26;101267.34;5017044;28;45605;-81
2022/07/23 11:03:01;;;;;;;;;25.25;22.25;;;;;24.11;60.59;101282.72;5016492;28;46041;-80
2022/07/23 11:05:38;;;;;;;;;37.50;29.50;;;;;24.06;60.47;101293.97;5016690;28;45554;-83
2022/07/23 11:08:04;;;;;;;;;32.00;27.00;;;;;24.05;59.90;101297.66;5016688;28;45651;-88
2022/07/23 11:10:50;;;;;;;;;34.25;27.00;;;;;24.03;59.76;101296.16;4999637;28;48573;-86
2022/07/23 11:13:22;;;;;;;;;29.50;26.00;;;;;24.00;60.00;101297.34;5017911;28;45755;-85
2022/07/23 11:16:05;;;;;;;;;33.25;26.25;;;;;23.96;60.21;101303.25;5017377;28;45774;-79
2022/07/23 11:18:40;;;;;;;;;35.25;28.75;;;;;23.93;60.15;101316.97;4999542;28;45558;-77
2022/07/23 11:21:20;;;;;;;;;32.00;29.00;;;;;23.90;60.20;101303.97;5015923;28;45749;-81
2022/07/23 11:24:08;;;;;;;;;25.25;21.25;;;;;23.89;60.03;101307.66;5018847;28;46087;-88
2022/07/23 11:26:59;;;;;;;;;31.75;26.75;;;;;23.91;59.83;101300.28;5018117;28;45598;-89
2022/07/23 11:29:24;;;;;;;;;29.75;26.75;;;;;23.94;60.15;101305.25;5017937;28;45681;-84
2022/07/23 11:32:05;;;;;;;;;29.50;26.00;;;;;23.95;59.85;101291.72;5016727;28;45935;-83
2022/07/23 11:34:37;;;;;;;;;29.75;25.00;;;;;23.95;59.79;101282.84;5000425;28;47602;-85
2022/07/23 11:37:06;;;;;;;;;27.50;24.50;;;;;23.98;59.64;101290.50;5015750;28;45629;-85
2022/07/23 11:43:04;;;;;;;;;30.50;29.25;;;;;24.08;59.60;101296.44;5015944;28;45736;-82
2022/07/23 11:45:34;;;;;;;;;30.00;27.50;;;;;24.08;59.53;101294.59;5015577;28;46058;-80
2022/07/23 11:47:59;;;;;;;;;29.25;26.00;;;;;24.11;59.38;101296.94;5015852;28;45771;-84
2022/07/23 11:50:26;;;;;;;;;29.25;25.75;;;;;24.13;59.24;101294.88;5018162;28;45798;-85
2022/07/23 11:52:53;;;;;;;;;25.00;22.25;;;;;24.10;59.22;101295.25;5001724;28;47430;-87
2022/07/23 11:58:55;;;;;;;;;26.25;22.75;;;;;24.19;58.89;101302.25;5016146;28;45881;-86
2022/07/23 12:01:20;;;;;;;;;26.25;25.25;;;;;24.24;58.77;101307.03;5016555;28;45831;-85
2022/07/23 12:03:50;;;;;;;;;26.25;24.00;;;;;24.31;58.62;101291.94;5015720;28;45698;-86
2022/07/23 12:06:16;;;;;;;;;29.75;25.50;;;;;24.38;58.50;101292.03;5014596;28;45733;-81
2022/07/23 12:08:41;;;;;;;;;30.50;27.25;;;;;24.41;58.59;101297.00;5014439;28;45878;-84
2022/07/23 12:14:28;;;;;;;;;27.50;25.75;;;;;24.37;58.04;101290.38;5014113;28;45615;-87
2022/07/23 12:17:07;;;;;;;;;24.25;23.75;;;;;24.37;58.15;101293.03;4994924;28;46220;-79
2022/07/23 12:19:33;;;;;;;;;25.50;23.50;;;;;24.37;58.54;101296.56;5011957;28;45712;-78
2022/07/23 12:21:59;;;;;;;;;27.00;26.25;;;;;24.44;58.17;101288.63;4994717;28;46078;-78
2022/07/23 12:24:24;;;;;;;;;26.00;25.50;;;;;24.44;58.20;101283.28;5013381;28;46527;-84
2022/07/23 12:30:33;;;;;;;;;25.00;24.25;;;;;24.56;58.12;101287.19;5013079;28;45776;-85
2022/07/23 12:32:59;;;;;;;;;28.25;26.00;;;;;24.62;57.70;101286.41;4995735;28;45766;-81
2022/07/23 12:35:34;;;;;;;;;26.50;26.00;;;;;24.64;57.68;101287.91;5015387;28;45800;-84
2022/07/23 12:38:02;;;;;;;;;25.25;23.00;;;;;24.75;57.14;101281.25;5015619;28;46181;-85
2022/07/23 12:40:37;;;;;;;;;23.75;22.25;;;;;24.81;56.41;101298.44;5015346;28;45583;-84
2022/07/23 12:43:09;;;;;;;;;23.50;22.25;;;;;24.77;56.87;101276.56;5014914;28;45555;-83